createdAt,value
2023-05-08T00:00:42.252Z,4.40
2023-05-08T00:05:55.580Z,4.63
2023-05-08T00:11:00.974Z,4.77
2023-05-08T00:16:09.690Z,4.90
2023-05-08T00:21:15.140Z,4.80
2023-05-08T00:26:21.213Z,5.17
2023-05-08T00:31:29.356Z,4.18
2023-05-08T00:36:35.187Z,4.68
2023-05-08T00:41:40.604Z,4.20
2023-05-08T00:46:49.220Z,5.43
2023-05-08T00:51:58.549Z,3.70
2023-05-08T00:57:04.083Z,4.53
2023-05-08T01:02:12.183Z,4.50
2023-05-08T01:07:17.732Z,4.60
2023-05-08T01:12:29.435Z,4.53
2023-05-08T01:17:48.820Z,4.77
2023-05-08T01:23:29.079Z,4.80
2023-05-08T01:28:52.374Z,4.80
2023-05-08T01:34:09.833Z,5.30
2023-05-08T01:39:20.914Z,5.63
2023-05-08T01:44:31.671Z,5.60
2023-05-08T01:49:43.611Z,5.47
2023-05-08T01:55:11.717Z,5.88
2023-05-08T02:00:19.482Z,5.03
2023-05-08T02:05:30.501Z,5.87
2023-05-08T02:10:36.397Z,5.57
2023-05-08T02:15:42.501Z,5.63
2023-05-08T02:20:52.137Z,6.00
2023-05-08T02:25:59.143Z,5.70
2023-05-08T02:31:05.567Z,5.65
2023-05-08T02:36:18.790Z,5.13
2023-05-08T02:41:26.188Z,5.30
2023-05-08T02:46:40.013Z,5.45
2023-05-08T02:51:56.714Z,4.43
2023-05-08T02:57:09.572Z,5.43
2023-05-08T03:02:20.914Z,5.10
2023-05-08T03:07:31.064Z,5.07
2023-05-08T03:12:43.095Z,4.80
2023-05-08T03:17:50.427Z,4.72
2023-05-08T03:22:59.002Z,5.05
2023-05-08T03:28:06.910Z,5.07
2023-05-08T03:33:15.233Z,4.60
2023-05-08T03:38:23.739Z,4.63
2023-05-08T03:43:29.554Z,4.95
2023-05-08T03:48:35.926Z,4.83
2023-05-08T03:53:44.287Z,5.50
2023-05-08T03:58:53.461Z,4.85
2023-05-08T04:04:08.047Z,4.97
2023-05-08T04:09:25.702Z,5.10
2023-05-08T04:14:36.433Z,5.22
2023-05-08T04:19:49.250Z,5.43
2023-05-08T04:25:02.349Z,5.82
2023-05-08T04:30:09.532Z,5.55
2023-05-08T04:35:16.152Z,5.50
2023-05-08T04:40:25.354Z,5.03
2023-05-08T04:45:31.034Z,5.47
2023-05-08T04:50:36.716Z,5.67
2023-05-08T04:55:45.006Z,5.60
2023-05-08T05:00:51.006Z,5.80
2023-05-08T05:06:01.034Z,5.63
2023-05-08T05:11:09.654Z,5.83
2023-05-08T05:16:15.171Z,5.85
2023-05-08T05:21:20.712Z,5.72
2023-05-08T05:26:29.073Z,6.47
2023-05-08T05:31:34.854Z,6.05
2023-05-08T05:36:40.919Z,6.50
2023-05-08T05:41:49.217Z,7.20
2023-05-08T05:46:54.722Z,6.95
2023-05-08T05:52:00.457Z,7.20
2023-05-08T05:57:08.697Z,6.50
2023-05-08T06:02:19.063Z,7.03
2023-05-08T06:07:25.484Z,7.22
2023-05-08T06:12:33.553Z,7.10
2023-05-08T06:17:39.722Z,7.10
2023-05-08T06:22:45.338Z,7.30
2023-05-08T06:27:53.282Z,7.73
2023-05-08T06:32:59.065Z,7.63
2023-05-08T06:38:04.766Z,7.15
2023-05-08T06:43:12.755Z,7.40
2023-05-08T06:48:18.155Z,7.10
2023-05-08T06:53:23.622Z,6.60
2023-05-08T06:58:31.687Z,6.33
2023-05-08T07:03:37.219Z,6.32
2023-05-08T07:08:42.915Z,6.35
2023-05-08T07:13:51.153Z,6.90
2023-05-08T07:18:56.654Z,6.65
2023-05-08T07:24:02.159Z,6.20
2023-05-08T07:29:10.847Z,6.30
2023-05-08T07:34:16.230Z,6.77
2023-05-08T07:39:21.709Z,6.13
2023-05-08T07:44:31.750Z,5.80
2023-05-08T07:49:44.621Z,5.50
2023-05-08T07:54:50.084Z,5.03
2023-05-08T07:59:58.079Z,4.53
2023-05-08T08:05:03.582Z,4.80
2023-05-08T08:10:10.785Z,4.70
2023-05-08T08:15:18.806Z,4.50
2023-05-08T08:20:24.439Z,4.50
2023-05-08T08:25:30.431Z,5.50
2023-05-08T08:30:38.648Z,4.80
2023-05-08T08:35:44.072Z,4.60
2023-05-08T08:40:49.521Z,4.37
2023-05-08T08:46:01.389Z,4.72
2023-05-08T08:51:12.788Z,5.13
2023-05-08T08:56:19.467Z,5.30
2023-05-08T09:01:29.475Z,4.65
2023-05-08T09:06:38.746Z,4.47
2023-05-08T09:11:46.611Z,4.33
2023-05-08T09:17:00.255Z,4.13
2023-05-08T09:22:09.433Z,3.83
2023-05-08T09:27:24.359Z,4.33
2023-05-08T09:32:32.710Z,4.63
2023-05-08T09:37:41.745Z,4.30
2023-05-08T09:42:47.598Z,4.57
2023-05-08T09:47:55.810Z,4.20
2023-05-08T09:53:04.630Z,4.55
2023-05-08T09:58:10.138Z,3.92
2023-05-08T10:03:19.347Z,4.80
2023-05-08T10:08:26.808Z,4.50
2023-05-08T10:13:35.177Z,4.30
2023-05-08T10:18:48.881Z,4.80
2023-05-08T10:23:57.316Z,5.20
2023-05-08T10:29:10.180Z,5.20
2023-05-08T10:34:22.735Z,4.40
2023-05-08T10:39:28.700Z,4.18
2023-05-08T10:44:35.080Z,3.88
2023-05-08T10:49:52.211Z,4.27
2023-05-08T10:55:25.905Z,3.87
2023-05-08T11:00:34.893Z,3.92
2023-05-08T11:05:52.712Z,2.65
2023-05-08T11:11:08.121Z,1.90
2023-05-08T11:16:13.689Z,3.50
2023-05-08T11:21:24.211Z,3.47
2023-05-08T11:26:42.473Z,3.43
2023-05-08T11:31:56.210Z,3.33
2023-05-08T11:37:12.015Z,3.72
2023-05-08T11:42:38.730Z,3.30
2023-05-08T11:47:45.442Z,3.30
2023-05-08T11:52:54.648Z,2.88
2023-05-08T11:57:59.978Z,2.80
2023-05-08T12:03:10.379Z,2.73
2023-05-08T12:08:20.473Z,2.83
2023-05-08T12:13:27.617Z,3.10
2023-05-08T12:18:39.800Z,3.60
2023-05-08T12:23:48.271Z,3.80
2023-05-08T12:28:57.951Z,3.88
2023-05-08T12:34:04.899Z,4.43
2023-05-08T12:39:19.279Z,3.37
2023-05-08T12:44:27.084Z,3.20
2023-05-08T12:49:33.905Z,2.92
2023-05-08T12:54:50.333Z,2.57
2023-05-08T13:00:07.636Z,2.90
2023-05-08T13:05:13.088Z,2.47
2023-05-08T13:10:24.952Z,2.40
2023-05-08T13:15:31.809Z,2.53
2023-05-08T13:20:37.388Z,2.65
2023-05-08T13:25:45.459Z,2.80
2023-05-08T13:30:51.157Z,3.50
2023-05-08T13:35:57.101Z,3.90
2023-05-08T13:41:05.093Z,3.70
2023-05-08T13:46:10.545Z,3.43
2023-05-08T13:51:16.041Z,3.60
2023-05-08T13:56:24.030Z,3.97
2023-05-08T14:01:29.485Z,3.50
2023-05-08T14:06:35.245Z,2.53
2023-05-08T14:11:43.324Z,2.20
2023-05-08T14:16:51.582Z,2.00
2023-05-08T14:21:57.126Z,2.33
2023-05-08T14:27:06.262Z,2.30
2023-05-08T14:32:12.211Z,2.00
2023-05-08T14:37:17.898Z,2.27
2023-05-08T14:42:26.015Z,2.00
2023-05-08T14:47:33.189Z,2.00
2023-05-08T14:52:38.796Z,2.00
2023-05-08T14:57:46.989Z,1.60
2023-05-08T15:02:52.590Z,2.00
2023-05-08T15:07:59.482Z,2.20
2023-05-08T15:13:08.035Z,2.50
2023-05-08T15:18:14.234Z,2.70
2023-05-08T15:23:20.569Z,3.60
2023-05-08T15:28:28.888Z,3.63
2023-05-08T15:33:34.541Z,3.42
2023-05-08T15:38:39.902Z,4.35
2023-05-08T15:43:48.055Z,4.43
2023-05-08T15:48:53.401Z,4.32
2023-05-08T15:53:59.830Z,4.53
2023-05-08T15:59:08.365Z,5.10
2023-05-08T16:04:13.916Z,5.72
2023-05-08T16:09:19.321Z,5.90
2023-05-08T16:14:27.908Z,6.43
2023-05-08T16:19:36.187Z,6.03
2023-05-08T16:24:41.785Z,6.63
2023-05-08T16:29:49.938Z,6.40
2023-05-08T16:34:55.769Z,6.27
2023-05-08T16:40:02.690Z,7.53
2023-05-08T16:45:12.453Z,6.80
2023-05-08T16:50:21.298Z,7.10
2023-05-08T16:55:26.890Z,6.35
2023-05-08T17:00:35.023Z,6.82
2023-05-08T17:05:44.415Z,6.83
2023-05-08T17:10:54.394Z,6.77
2023-05-08T17:16:02.632Z,7.45
2023-05-08T17:21:08.233Z,7.00
2023-05-08T17:26:15.035Z,7.10
2023-05-08T17:31:23.523Z,7.32
2023-05-08T17:36:28.978Z,7.00
2023-05-08T17:41:37.152Z,6.73
2023-05-08T17:46:47.250Z,5.85
2023-05-08T17:51:52.683Z,6.20
2023-05-08T17:56:59.711Z,6.57
2023-05-08T18:02:08.524Z,5.77
2023-05-08T18:07:14.362Z,6.03
2023-05-08T18:12:19.773Z,5.30
2023-05-08T18:17:29.695Z,5.83
2023-05-08T18:22:35.176Z,5.88
2023-05-08T18:27:40.574Z,6.18
2023-05-08T18:32:49.324Z,5.53
2023-05-08T18:37:54.712Z,5.00
2023-05-08T18:43:02.026Z,5.30
2023-05-08T18:48:10.930Z,4.43
2023-05-08T18:53:17.312Z,4.93
2023-05-08T18:58:22.705Z,4.55
2023-05-08T19:03:30.841Z,4.13
2023-05-08T19:08:36.507Z,4.50
2023-05-08T19:13:41.970Z,4.90
2023-05-08T19:18:50.894Z,4.60
2023-05-08T19:23:56.307Z,4.33
2023-05-08T19:29:01.988Z,4.50
2023-05-08T19:34:10.078Z,4.65
2023-05-08T19:39:15.691Z,5.17
2023-05-08T19:44:21.312Z,4.27
2023-05-08T19:49:29.353Z,4.72
2023-05-08T19:54:34.798Z,5.10
2023-05-08T19:59:40.225Z,4.90
2023-05-08T20:05:18.201Z,4.53
2023-05-08T20:10:14.544Z,4.90
2023-05-08T20:15:20.251Z,5.33
2023-05-08T20:20:32.281Z,5.40
2023-05-08T20:25:37.705Z,5.30
2023-05-08T20:30:43.091Z,5.57
2023-05-08T20:35:52.775Z,5.40
2023-05-08T20:41:00.889Z,5.35
2023-05-08T20:46:07.018Z,5.18
2023-05-08T20:51:16.709Z,5.47
2023-05-08T20:56:22.279Z,5.15
2023-05-08T21:01:29.147Z,6.20
2023-05-08T21:06:38.581Z,6.70
2023-05-08T21:11:44.249Z,5.63
2023-05-08T21:16:50.377Z,6.18
2023-05-08T21:21:58.946Z,5.73
2023-05-08T21:27:04.901Z,6.00
2023-05-08T21:32:13.476Z,6.60
2023-05-08T21:37:21.509Z,6.50
2023-05-08T21:42:27.357Z,6.23
2023-05-08T21:47:32.919Z,6.25
2023-05-08T21:52:41.713Z,6.57
2023-05-08T21:57:47.772Z,6.87
2023-05-08T22:02:53.331Z,6.85
2023-05-08T22:08:01.905Z,6.50
2023-05-08T22:13:07.786Z,6.80
2023-05-08T22:18:13.656Z,6.07
2023-05-08T22:23:21.698Z,6.30
2023-05-08T22:28:27.038Z,6.40
2023-05-08T22:33:34.136Z,7.10
2023-05-08T22:38:42.381Z,6.32
2023-05-08T22:43:47.946Z,7.13
2023-05-08T22:48:53.365Z,7.60
2023-05-08T22:54:01.305Z,6.97
2023-05-08T22:59:07.012Z,7.72
2023-05-08T23:04:12.690Z,7.60
2023-05-08T23:09:20.711Z,7.72
2023-05-08T23:14:26.072Z,7.20
2023-05-08T23:19:31.376Z,7.43
2023-05-08T23:24:40.667Z,7.03
2023-05-08T23:29:46.031Z,7.53
2023-05-08T23:34:51.436Z,7.88
2023-05-08T23:39:59.642Z,7.93
2023-05-08T23:45:05.277Z,7.90
2023-05-08T23:50:10.962Z,7.60
2023-05-08T23:55:19.207Z,8.30
